sensor_id;sensor_type;location;lat;lon;timestamp;pressure;altitude;pressure_sealevel;temperature;humidity
50226;BME280;36113;50.742;6.432;2023-02-02T00:01:15;146227.53;;;5.01;100.00
50226;BME280;36113;50.742;6.432;2023-02-02T00:03:41;146273.66;;;5.20;100.00
50226;BME280;36113;50.742;6.432;2023-02-02T00:06:06;146278.66;;;5.22;100.00
50226;BME280;36113;50.742;6.432;2023-02-02T00:08:32;146254.94;;;5.12;100.00
50226;BME280;36113;50.742;6.432;2023-02-02T00:10:59;146277.41;;;5.21;100.00
50226;BME280;36113;50.742;6.432;2023-02-02T00:13:25;146284.91;;;5.24;100.00
50226;BME280;36113;50.742;6.432;2023-02-02T00:15:52;146294.88;;;5.29;100.00
50226;BME280;36113;50.742;6.432;2023-02-02T00:18:17;146287.38;;;5.25;100.00
50226;BME280;36113;50.742;6.432;2023-02-02T00:20:42;146268.69;;;5.18;100.00
50226;BME280;36113;50.742;6.432;2023-02-02T00:23:08;146273.66;;;5.20;100.00
50226;BME280;36113;50.742;6.432;2023-02-02T00:25:34;146267.41;;;5.17;100.00
50226;BME280;36113;50.742;6.432;2023-02-02T00:27:59;146287.38;;;5.25;100.00
50226;BME280;36113;50.742;6.432;2023-02-02T00:30:24;146283.63;;;5.24;100.00
50226;BME280;36113;50.742;6.432;2023-02-02T00:32:50;146289.91;;;5.26;100.00
50226;BME280;36113;50.742;6.432;2023-02-02T00:35:17;146226.28;;;5.00;100.00
50226;BME280;36113;50.742;6.432;2023-02-02T00:37:42;146289.91;;;5.26;100.00
50226;BME280;36113;50.742;6.432;2023-02-02T00:40:08;146263.72;;;5.16;100.00
50226;BME280;36113;50.742;6.432;2023-02-02T00:42:33;146281.16;;;5.23;100.00
50226;BME280;36113;50.742;6.432;2023-02-02T00:44:59;146253.69;;;5.12;100.00
50226;BME280;36113;50.742;6.432;2023-02-02T00:47:40;146277.41;;;5.21;100.00
50226;BME280;36113;50.742;6.432;2023-02-02T00:50:06;146276.19;;;5.21;100.00
50226;BME280;36113;50.742;6.432;2023-02-02T00:52:31;146274.91;;;5.20;100.00
50226;BME280;36113;50.742;6.432;2023-02-02T00:54:56;146272.44;;;5.19;100.00
50226;BME280;36113;50.742;6.432;2023-02-02T00:57:22;146269.94;;;5.18;100.00
50226;BME280;36113;50.742;6.432;2023-02-02T00:59:47;146271.16;;;5.19;100.00
50226;BME280;36113;50.742;6.432;2023-02-02T01:02:13;146271.16;;;5.19;100.00
50226;BME280;36113;50.742;6.432;2023-02-02T01:04:38;146276.19;;;5.21;100.00
50226;BME280;36113;50.742;6.432;2023-02-02T01:07:04;146242.47;;;5.07;100.00
50226;BME280;36113;50.742;6.432;2023-02-02T01:09:29;146284.91;;;5.24;100.00
50226;BME280;36113;50.742;6.432;2023-02-02T01:11:55;146264.94;;;5.16;100.00
50226;BME280;36113;50.742;6.432;2023-02-02T01:14:20;146287.38;;;5.25;100.00
50226;BME280;36113;50.742;6.432;2023-02-02T01:16:46;146279.88;;;5.22;100.00
50226;BME280;36113;50.742;6.432;2023-02-02T01:19:12;146268.69;;;5.18;100.00
50226;BME280;36113;50.742;6.432;2023-02-02T01:21:37;146277.41;;;5.21;100.00
50226;BME280;36113;50.742;6.432;2023-02-02T01:24:03;146279.88;;;5.22;100.00
50226;BME280;36113;50.742;6.432;2023-02-02T01:26:28;146286.16;;;5.25;100.00
50226;BME280;36113;50.742;6.432;2023-02-02T01:28:53;146252.47;;;5.11;100.00
50226;BME280;36113;50.742;6.432;2023-02-02T01:31:19;146287.38;;;5.25;100.00
50226;BME280;36113;50.742;6.432;2023-02-02T01:33:46;146293.63;;;5.28;100.00
50226;BME280;36113;50.742;6.432;2023-02-02T01:36:13;146292.34;;;5.28;100.00
50226;BME280;36113;50.742;6.432;2023-02-02T01:38:38;146242.47;;;5.07;100.00
50226;BME280;36113;50.742;6.432;2023-02-02T01:41:05;146293.63;;;5.28;100.00
50226;BME280;36113;50.742;6.432;2023-02-02T01:46:15;146289.91;;;5.26;100.00
50226;BME280;36113;50.742;6.432;2023-02-02T01:48:44;146298.63;;;5.30;100.00
50226;BME280;36113;50.742;6.432;2023-02-02T01:51:15;146282.41;;;5.23;100.00
50226;BME280;36113;50.742;6.432;2023-02-02T01:53:43;146211.31;;;4.94;100.00
50226;BME280;36113;50.742;6.432;2023-02-02T01:56:11;146251.25;;;5.11;100.00
50226;BME280;36113;50.742;6.432;2023-02-02T01:58:40;146278.66;;;5.22;100.00
50226;BME280;36113;50.742;6.432;2023-02-02T02:01:06;146294.88;;;5.29;100.00
50226;BME280;36113;50.742;6.432;2023-02-02T02:03:33;146293.63;;;5.28;100.00
50226;BME280;36113;50.742;6.432;2023-02-02T02:08:37;146283.63;;;5.24;100.00
50226;BME280;36113;50.742;6.432;2023-02-02T02:11:03;146247.50;;;5.09;100.00
50226;BME280;36113;50.742;6.432;2023-02-02T02:13:29;146276.19;;;5.21;100.00
50226;BME280;36113;50.742;6.432;2023-02-02T02:19:18;146291.13;;;5.27;100.00
50226;BME280;36113;50.742;6.432;2023-02-02T02:22:02;146287.38;;;5.25;100.00
50226;BME280;36113;50.742;6.432;2023-02-02T02:25:13;146279.88;;;5.22;100.00
50226;BME280;36113;50.742;6.432;2023-02-02T02:28:28;146287.38;;;5.25;100.00
50226;BME280;36113;50.742;6.432;2023-02-02T02:32:12;146278.66;;;5.22;100.00
50226;BME280;36113;50.742;6.432;2023-02-02T02:34:16;146287.38;;;5.25;100.00
50226;BME280;36113;50.742;6.432;2023-02-02T02:37:09;146276.19;;;5.21;100.00
50226;BME280;36113;50.742;6.432;2023-02-02T02:39:43;146284.91;;;5.24;100.00
50226;BME280;36113;50.742;6.432;2023-02-02T02:42:16;146282.41;;;5.23;100.00
50226;BME280;36113;50.742;6.432;2023-02-02T02:44:43;146254.94;;;5.12;100.00
50226;BME280;36113;50.742;6.432;2023-02-02T02:47:09;146284.91;;;5.24;100.00
50226;BME280;36113;50.742;6.432;2023-02-02T02:49:46;146288.66;;;5.26;100.00
50226;BME280;36113;50.742;6.432;2023-02-02T02:52:12;146289.91;;;5.26;100.00
50226;BME280;36113;50.742;6.432;2023-02-02T02:54:44;146292.34;;;5.28;100.00
50226;BME280;36113;50.742;6.432;2023-02-02T03:02:56;146289.91;;;5.26;100.00
50226;BME280;36113;50.742;6.432;2023-02-02T03:05:25;146251.25;;;5.11;100.00
50226;BME280;36113;50.742;6.432;2023-02-02T03:08:23;146276.19;;;5.21;100.00
50226;BME280;36113;50.742;6.432;2023-02-02T03:10:51;146274.91;;;5.20;100.00
50226;BME280;36113;50.742;6.432;2023-02-02T03:13:18;146289.91;;;5.26;100.00
50226;BME280;36113;50.742;6.432;2023-02-02T03:15:44;146289.91;;;5.26;100.00
50226;BME280;36113;50.742;6.432;2023-02-02T03:18:15;146299.84;;;5.31;100.00
50226;BME280;36113;50.742;6.432;2023-02-02T03:20:42;146232.50;;;5.03;100.00
50226;BME280;36113;50.742;6.432;2023-02-02T03:23:09;146289.91;;;5.26;100.00
50226;BME280;36113;50.742;6.432;2023-02-02T03:25:34;146252.47;;;5.11;100.00
50226;BME280;36113;50.742;6.432;2023-02-02T03:28:00;146284.91;;;5.24;100.00
50226;BME280;36113;50.742;6.432;2023-02-02T03:30:25;146284.91;;;5.24;100.00
50226;BME280;36113;50.742;6.432;2023-02-02T03:32:51;146283.63;;;5.24;100.00
50226;BME280;36113;50.742;6.432;2023-02-02T03:35:17;146291.13;;;5.27;100.00
50226;BME280;36113;50.742;6.432;2023-02-02T03:37:45;146292.34;;;5.28;100.00
50226;BME280;36113;50.742;6.432;2023-02-02T03:40:11;146248.72;;;5.10;100.00
50226;BME280;36113;50.742;6.432;2023-02-02T03:42:37;146279.88;;;5.22;100.00
50226;BME280;36113;50.742;6.432;2023-02-02T03:45:02;146273.66;;;5.20;100.00
50226;BME280;36113;50.742;6.432;2023-02-02T03:47:29;146289.91;;;5.26;100.00
50226;BME280;36113;50.742;6.432;2023-02-02T03:49:54;146293.63;;;5.28;100.00
50226;BME280;36113;50.742;6.432;2023-02-02T03:52:20;146273.66;;;5.20;100.00
50226;BME280;36113;50.742;6.432;2023-02-02T03:54:45;146274.91;;;5.20;100.00
50226;BME280;36113;50.742;6.432;2023-02-02T03:57:10;146277.41;;;5.21;100.00
50226;BME280;36113;50.742;6.432;2023-02-02T03:59:36;146237.47;;;5.05;100.00
50226;BME280;36113;50.742;6.432;2023-02-02T04:02:01;146259.97;;;5.14;100.00
50226;BME280;36113;50.742;6.432;2023-02-02T04:04:26;146249.97;;;5.10;100.00
50226;BME280;36113;50.742;6.432;2023-02-02T04:06:52;146231.28;;;5.02;100.00
50226;BME280;36113;50.742;6.432;2023-02-02T04:09:17;146262.44;;;5.15;100.00
50226;BME280;36113;50.742;6.432;2023-02-02T04:11:42;146231.28;;;5.02;100.00
50226;BME280;36113;50.742;6.432;2023-02-02T04:14:09;146267.41;;;5.17;100.00
50226;BME280;36113;50.742;6.432;2023-02-02T04:16:34;146259.97;;;5.14;100.00
50226;BME280;36113;50.742;6.432;2023-02-02T04:19:04;146263.72;;;5.16;100.00
50226;BME280;36113;50.742;6.432;2023-02-02T04:21:30;146231.28;;;5.02;100.00
50226;BME280;36113;50.742;6.432;2023-02-02T04:23:56;146249.97;;;5.10;100.00
50226;BME280;36113;50.742;6.432;2023-02-02T04:26:21;146257.44;;;5.13;100.00
50226;BME280;36113;50.742;6.432;2023-02-02T04:28:50;146268.69;;;5.18;100.00
50226;BME280;36113;50.742;6.432;2023-02-02T04:31:15;146276.19;;;5.21;100.00
50226;BME280;36113;50.742;6.432;2023-02-02T04:33:40;146268.69;;;5.18;100.00
50226;BME280;36113;50.742;6.432;2023-02-02T04:36:06;146277.41;;;5.21;100.00
50226;BME280;36113;50.742;6.432;2023-02-02T04:38:31;146269.94;;;5.18;100.00
50226;BME280;36113;50.742;6.432;2023-02-02T04:40:57;146278.66;;;5.22;100.00
50226;BME280;36113;50.742;6.432;2023-02-02T04:43:22;146276.19;;;5.21;100.00
50226;BME280;36113;50.742;6.432;2023-02-02T04:45:53;146273.66;;;5.20;100.00
50226;BME280;36113;50.742;6.432;2023-02-02T04:48:19;146272.44;;;5.19;100.00
50226;BME280;36113;50.742;6.432;2023-02-02T04:50:44;146277.41;;;5.21;100.00
50226;BME280;36113;50.742;6.432;2023-02-02T04:53:09;146263.72;;;5.16;100.00
50226;BME280;36113;50.742;6.432;2023-02-02T04:55:36;146258.69;;;5.14;100.00
50226;BME280;36113;50.742;6.432;2023-02-02T04:58:02;146258.69;;;5.14;100.00
50226;BME280;36113;50.742;6.432;2023-02-02T05:00:27;146243.75;;;5.07;100.00
50226;BME280;36113;50.742;6.432;2023-02-02T05:02:53;146222.53;;;4.99;100.00
50226;BME280;36113;50.742;6.432;2023-02-02T05:05:18;146240.00;;;5.06;100.00
50226;BME280;36113;50.742;6.432;2023-02-02T05:07:44;146198.81;;;4.89;100.00
50226;BME280;36113;50.742;6.432;2023-02-02T05:10:10;146235.00;;;5.04;100.00
50226;BME280;36113;50.742;6.432;2023-02-02T05:12:36;146242.47;;;5.07;100.00
50226;BME280;36113;50.742;6.432;2023-02-02T05:15:01;146254.94;;;5.12;100.00
50226;BME280;36113;50.742;6.432;2023-02-02T05:17:29;146215.03;;;4.96;100.00
50226;BME280;36113;50.742;6.432;2023-02-02T05:19:54;146263.72;;;5.16;100.00
50226;BME280;36113;50.742;6.432;2023-02-02T05:22:19;146247.50;;;5.09;100.00
50226;BME280;36113;50.742;6.432;2023-02-02T05:24:45;146211.31;;;4.94;100.00
50226;BME280;36113;50.742;6.432;2023-02-02T05:27:10;146259.97;;;5.14;100.00
50226;BME280;36113;50.742;6.432;2023-02-02T05:29:36;146253.69;;;5.12;100.00
50226;BME280;36113;50.742;6.432;2023-02-02T05:32:01;146205.03;;;4.92;100.00
50226;BME280;36113;50.742;6.432;2023-02-02T05:34:26;146240.00;;;5.06;100.00
50226;BME280;36113;50.742;6.432;2023-02-02T05:36:52;146237.47;;;5.05;100.00
50226;BME280;36113;50.742;6.432;2023-02-02T05:39:17;146211.31;;;4.94;100.00
50226;BME280;36113;50.742;6.432;2023-02-02T05:41:43;146225.00;;;5.00;100.00
50226;BME280;36113;50.742;6.432;2023-02-02T05:44:11;146246.22;;;5.08;100.00
50226;BME280;36113;50.742;6.432;2023-02-02T05:46:36;146246.22;;;5.08;100.00
50226;BME280;36113;50.742;6.432;2023-02-02T05:49:02;146207.56;;;4.93;100.00
50226;BME280;36113;50.742;6.432;2023-02-02T05:51:38;146232.50;;;5.03;100.00
50226;BME280;36113;50.742;6.432;2023-02-02T05:54:04;146240.00;;;5.06;100.00
50226;BME280;36113;50.742;6.432;2023-02-02T05:56:30;146235.00;;;5.04;100.00
50226;BME280;36113;50.742;6.432;2023-02-02T05:58:55;146242.47;;;5.07;100.00
50226;BME280;36113;50.742;6.432;2023-02-02T06:01:21;146197.59;;;4.88;100.00
50226;BME280;36113;50.742;6.432;2023-02-02T06:03:46;146230.00;;;5.02;100.00
50226;BME280;36113;50.742;6.432;2023-02-02T06:06:12;146230.00;;;5.02;100.00
50226;BME280;36113;50.742;6.432;2023-02-02T06:08:37;146200.06;;;4.89;100.00
50226;BME280;36113;50.742;6.432;2023-02-02T06:11:13;146197.59;;;4.88;100.00
50226;BME280;36113;50.742;6.432;2023-02-02T06:13:40;146206.31;;;4.92;100.00
50226;BME280;36113;50.742;6.432;2023-02-02T06:16:05;146210.06;;;4.94;100.00
50226;BME280;36113;50.742;6.432;2023-02-02T06:18:31;146213.81;;;4.95;100.00
50226;BME280;36113;50.742;6.432;2023-02-02T06:20:57;146242.47;;;5.07;100.00
50226;BME280;36113;50.742;6.432;2023-02-02T06:23:23;146225.00;;;5.00;100.00
50226;BME280;36113;50.742;6.432;2023-02-02T06:25:49;146223.78;;;4.99;100.00
50226;BME280;36113;50.742;6.432;2023-02-02T06:28:14;146238.75;;;5.05;100.00
50226;BME280;36113;50.742;6.432;2023-02-02T06:30:39;146153.94;;;4.70;100.00
50226;BME280;36113;50.742;6.432;2023-02-02T06:33:04;146225.00;;;5.00;100.00
50226;BME280;36113;50.742;6.432;2023-02-02T06:35:31;146246.22;;;5.08;100.00
50226;BME280;36113;50.742;6.432;2023-02-02T06:37:57;146228.75;;;5.01;100.00
50226;BME280;36113;50.742;6.432;2023-02-02T06:40:23;146218.78;;;4.97;100.00
50226;BME280;36113;50.742;6.432;2023-02-02T06:42:54;146220.03;;;4.98;100.00
50226;BME280;36113;50.742;6.432;2023-02-02T06:45:20;146228.75;;;5.01;100.00
50226;BME280;36113;50.742;6.432;2023-02-02T06:47:45;146223.78;;;4.99;100.00
50226;BME280;36113;50.742;6.432;2023-02-02T06:50:10;146201.34;;;4.90;100.00
50226;BME280;36113;50.742;6.432;2023-02-02T06:52:36;146195.09;;;4.87;100.00
50226;BME280;36113;50.742;6.432;2023-02-02T06:55:01;146220.03;;;4.98;100.00
50226;BME280;36113;50.742;6.432;2023-02-02T06:57:26;146152.69;;;4.70;100.00
50226;BME280;36113;50.742;6.432;2023-02-02T06:59:52;146212.53;;;4.95;100.00
50226;BME280;36113;50.742;6.432;2023-02-02T07:02:17;146212.53;;;4.95;100.00
50226;BME280;36113;50.742;6.432;2023-02-02T07:04:42;146206.31;;;4.92;100.00
50226;BME280;36113;50.742;6.432;2023-02-02T07:07:08;146227.53;;;5.01;100.00
50226;BME280;36113;50.742;6.432;2023-02-02T07:09:34;146180.16;;;4.81;100.00
50226;BME280;36113;50.742;6.432;2023-02-02T07:11:59;146202.56;;;4.91;100.00
50226;BME280;36113;50.742;6.432;2023-02-02T07:14:25;146216.28;;;4.96;100.00
50226;BME280;36113;50.742;6.432;2023-02-02T07:16:51;146177.63;;;4.80;100.00
50226;BME280;36113;50.742;6.432;2023-02-02T07:19:16;146208.78;;;4.93;100.00
50226;BME280;36113;50.742;6.432;2023-02-02T07:21:41;146195.09;;;4.87;100.00
50226;BME280;36113;50.742;6.432;2023-02-02T07:24:07;146212.53;;;4.95;100.00
50226;BME280;36113;50.742;6.432;2023-02-02T07:26:33;146205.03;;;4.92;100.00
50226;BME280;36113;50.742;6.432;2023-02-02T07:28:59;146176.41;;;4.80;100.00
50226;BME280;36113;50.742;6.432;2023-02-02T07:31:25;146217.50;;;4.97;100.00
50226;BME280;36113;50.742;6.432;2023-02-02T07:33:51;146217.50;;;4.97;100.00
50226;BME280;36113;50.742;6.432;2023-02-02T07:36:19;146222.53;;;4.99;100.00
50226;BME280;36113;50.742;6.432;2023-02-02T07:38:46;146220.03;;;4.98;100.00
50226;BME280;36113;50.742;6.432;2023-02-02T07:41:11;146220.03;;;4.98;100.00
50226;BME280;36113;50.742;6.432;2023-02-02T07:43:38;146231.28;;;5.02;100.00
50226;BME280;36113;50.742;6.432;2023-02-02T07:46:05;146230.00;;;5.02;100.00
50226;BME280;36113;50.742;6.432;2023-02-02T07:48:33;146163.94;;;4.75;100.00
50226;BME280;36113;50.742;6.432;2023-02-02T07:50:59;146200.06;;;4.89;100.00
50226;BME280;36113;50.742;6.432;2023-02-02T07:53:25;146238.75;;;5.05;100.00
50226;BME280;36113;50.742;6.432;2023-02-02T07:55:50;146212.53;;;4.95;100.00
50226;BME280;36113;50.742;6.432;2023-02-02T07:58:16;146235.00;;;5.04;100.00
50226;BME280;36113;50.742;6.432;2023-02-02T08:00:41;146243.75;;;5.07;100.00
50226;BME280;36113;50.742;6.432;2023-02-02T08:03:10;146210.06;;;4.94;100.00
50226;BME280;36113;50.742;6.432;2023-02-02T08:05:35;146243.75;;;5.07;100.00
50226;BME280;36113;50.742;6.432;2023-02-02T08:08:01;146192.56;;;4.86;100.00
50226;BME280;36113;50.742;6.432;2023-02-02T08:10:26;146220.03;;;4.98;100.00
50226;BME280;36113;50.742;6.432;2023-02-02T08:12:51;146222.53;;;4.99;100.00
50226;BME280;36113;50.742;6.432;2023-02-02T08:15:16;146266.19;;;5.17;100.00
50226;BME280;36113;50.742;6.432;2023-02-02T08:17:45;146268.69;;;5.18;100.00
50226;BME280;36113;50.742;6.432;2023-02-02T08:20:11;146247.50;;;5.09;100.00
50226;BME280;36113;50.742;6.432;2023-02-02T08:22:37;146281.16;;;5.23;100.00
50226;BME280;36113;50.742;6.432;2023-02-02T08:25:04;146277.41;;;5.21;100.00
50226;BME280;36113;50.742;6.432;2023-02-02T08:27:29;146251.25;;;5.11;100.00
50226;BME280;36113;50.742;6.432;2023-02-02T08:29:54;146292.34;;;5.28;100.00
50226;BME280;36113;50.742;6.432;2023-02-02T08:32:20;146289.91;;;5.26;100.00
50226;BME280;36113;50.742;6.432;2023-02-02T08:34:47;146286.16;;;5.25;100.00
50226;BME280;36113;50.742;6.432;2023-02-02T08:37:13;146286.16;;;5.25;100.00
50226;BME280;36113;50.742;6.432;2023-02-02T08:39:38;146299.84;;;5.31;100.00
50226;BME280;36113;50.742;6.432;2023-02-02T08:42:03;146252.47;;;5.11;100.00
50226;BME280;36113;50.742;6.432;2023-02-02T08:44:28;146293.63;;;5.28;100.00
50226;BME280;36113;50.742;6.432;2023-02-02T08:46:54;146213.81;;;4.95;100.00
50226;BME280;36113;50.742;6.432;2023-02-02T08:49:19;146289.91;;;5.26;100.00
50226;BME280;36113;50.742;6.432;2023-02-02T08:51:44;146311.09;;;5.35;100.00
50226;BME280;36113;50.742;6.432;2023-02-02T08:54:11;146242.47;;;5.07;100.00
50226;BME280;36113;50.742;6.432;2023-02-02T08:56:36;146344.78;;;5.49;100.00
50226;BME280;36113;50.742;6.432;2023-02-02T08:59:02;146311.09;;;5.35;100.00
50226;BME280;36113;50.742;6.432;2023-02-02T09:01:29;146351.00;;;5.52;100.00
50226;BME280;36113;50.742;6.432;2023-02-02T09:03:56;146334.81;;;5.45;100.00
50226;BME280;36113;50.742;6.432;2023-02-02T09:06:27;146333.53;;;5.44;100.00
50226;BME280;36113;50.742;6.432;2023-02-02T09:08:53;146352.28;;;5.52;100.00
50226;BME280;36113;50.742;6.432;2023-02-02T09:11:19;146337.28;;;5.46;100.00
50226;BME280;36113;50.742;6.432;2023-02-02T09:13:46;146347.28;;;5.50;100.00
50226;BME280;36113;50.742;6.432;2023-02-02T09:16:14;146358.50;;;5.55;100.00
50226;BME280;36113;50.742;6.432;2023-02-02T09:18:41;146354.75;;;5.53;100.00
50226;BME280;36113;50.742;6.432;2023-02-02T09:21:08;146370.97;;;5.60;100.00
50226;BME280;36113;50.742;6.432;2023-02-02T09:23:36;146382.22;;;5.64;100.00
50226;BME280;36113;50.742;6.432;2023-02-02T09:28:43;146402.19;;;5.73;100.00
50226;BME280;36113;50.742;6.432;2023-02-02T09:31:09;146405.94;;;5.74;100.00
50226;BME280;36113;50.742;6.432;2023-02-02T09:33:35;146408.41;;;5.75;100.00
50226;BME280;36113;50.742;6.432;2023-02-02T09:36:14;146402.19;;;5.73;100.00
50226;BME280;36113;50.742;6.432;2023-02-02T09:38:41;146373.47;;;5.61;100.00
50226;BME280;36113;50.742;6.432;2023-02-02T09:52:57;146377.22;;;5.62;100.00
50226;BME280;36113;50.742;6.432;2023-02-02T09:55:38;146412.16;;;5.77;100.00
50226;BME280;36113;50.742;6.432;2023-02-02T09:58:19;146442.09;;;5.89;100.00
50226;BME280;36113;50.742;6.432;2023-02-02T10:01:03;146460.91;;;5.97;100.00
50226;BME280;36113;50.742;6.432;2023-02-02T10:03:42;146474.63;;;6.03;100.00
50226;BME280;36113;50.742;6.432;2023-02-02T10:09:00;146500.81;;;6.13;100.00
50226;BME280;36113;50.742;6.432;2023-02-02T10:14:04;146474.63;;;6.03;100.00
50226;BME280;36113;50.742;6.432;2023-02-02T10:16:32;146454.59;;;5.94;100.00
50226;BME280;36113;50.742;6.432;2023-02-02T10:19:00;146478.38;;;6.04;100.00
50226;BME280;36113;50.742;6.432;2023-02-02T10:22:01;146452.13;;;5.93;100.00
50226;BME280;36113;50.742;6.432;2023-02-02T10:24:21;146363.47;;;5.57;100.00
50226;BME280;36113;50.742;6.432;2023-02-02T10:26:52;146422.13;;;5.81;100.00
50226;BME280;36113;50.742;6.432;2023-02-02T10:34:41;146389.72;;;5.68;100.00
50226;BME280;36113;50.742;6.432;2023-02-02T10:43:18;146468.41;;;6.00;100.00
50226;BME280;36113;50.742;6.432;2023-02-02T10:46:14;146474.63;;;6.03;100.00
50226;BME280;36113;50.742;6.432;2023-02-02T10:48:45;146488.34;;;6.08;100.00
50226;BME280;36113;50.742;6.432;2023-02-02T10:51:26;146502.09;;;6.14;100.00
50226;BME280;36113;50.742;6.432;2023-02-02T10:53:53;146470.88;;;6.01;100.00
50226;BME280;36113;50.742;6.432;2023-02-02T10:56:30;146515.81;;;6.19;100.00
50226;BME280;36113;50.742;6.432;2023-02-02T11:01:29;146523.31;;;6.23;100.00
50226;BME280;36113;50.742;6.432;2023-02-02T11:03:54;146543.25;;;6.31;100.00
50226;BME280;36113;50.742;6.432;2023-02-02T11:06:39;146498.34;;;6.12;100.00
50226;BME280;36113;50.742;6.432;2023-02-02T11:09:14;146513.28;;;6.18;100.00
50226;BME280;36113;50.742;6.432;2023-02-02T11:11:42;146529.53;;;6.25;100.00
50226;BME280;36113;50.742;6.432;2023-02-02T11:14:14;146563.25;;;6.39;100.00
50226;BME280;36113;50.742;6.432;2023-02-02T11:16:42;146596.94;;;6.53;100.00
50226;BME280;36113;50.742;6.432;2023-02-02T11:19:29;146626.91;;;6.65;100.00
50226;BME280;36113;50.742;6.432;2023-02-02T11:21:56;146606.97;;;6.57;100.00
50226;BME280;36113;50.742;6.432;2023-02-02T11:24:31;146619.47;;;6.62;100.00
50226;BME280;36113;50.742;6.432;2023-02-02T11:27:03;146608.19;;;6.57;100.00
50226;BME280;36113;50.742;6.432;2023-02-02T11:29:41;146594.47;;;6.52;100.00
50226;BME280;36113;50.742;6.432;2023-02-02T11:32:26;146621.94;;;6.63;100.00
50226;BME280;36113;50.742;6.432;2023-02-02T11:37:26;146618.19;;;6.62;100.00
50226;BME280;36113;50.742;6.432;2023-02-02T11:39:52;146619.47;;;6.62;100.00
50226;BME280;36113;50.742;6.432;2023-02-02T11:42:19;146629.44;;;6.66;100.00
50226;BME280;36113;50.742;6.432;2023-02-02T11:44:49;146639.41;;;6.70;100.00
50226;BME280;36113;50.742;6.432;2023-02-02T11:47:20;146630.66;;;6.67;100.00
50226;BME280;36113;50.742;6.432;2023-02-02T11:49:49;146635.69;;;6.69;100.00
50226;BME280;36113;50.742;6.432;2023-02-02T11:52:21;146654.41;;;6.76;100.00
50226;BME280;36113;50.742;6.432;2023-02-02T11:54:53;146641.91;;;6.71;100.00
50226;BME280;36113;50.742;6.432;2023-02-02T11:57:21;146643.16;;;6.72;100.00
50226;BME280;36113;50.742;6.432;2023-02-02T11:59:49;146646.91;;;6.73;100.00
50226;BME280;36113;50.742;6.432;2023-02-02T12:04:45;146674.41;;;6.85;100.00
50226;BME280;36113;50.742;6.432;2023-02-02T12:07:36;146655.66;;;6.77;100.00
50226;BME280;36113;50.742;6.432;2023-02-02T12:21:51;146723.09;;;7.05;100.00
50226;BME280;36113;50.742;6.432;2023-02-02T12:24:32;146735.59;;;7.10;100.00
50226;BME280;36113;50.742;6.432;2023-02-02T12:27:07;146734.34;;;7.09;100.00
50226;BME280;36113;50.742;6.432;2023-02-02T12:32:20;146748.06;;;7.15;100.00
50226;BME280;36113;50.742;6.432;2023-02-02T12:35:10;146770.59;;;7.24;100.00
50226;BME280;36113;50.742;6.432;2023-02-02T12:45:56;146824.31;;;7.46;100.00
50226;BME280;36113;50.742;6.432;2023-02-02T12:48:36;146834.31;;;7.50;100.00
50226;BME280;36113;50.742;6.432;2023-02-02T13:05:05;146758.09;;;7.19;100.00
50226;BME280;36113;50.742;6.432;2023-02-02T13:07:38;146798.06;;;7.36;100.00
50226;BME280;36113;50.742;6.432;2023-02-02T13:12:35;146823.03;;;7.46;100.00
50226;BME280;36113;50.742;6.432;2023-02-02T13:15:06;146848.03;;;7.56;100.00
50226;BME280;36113;50.742;6.432;2023-02-02T13:17:46;146764.31;;;7.22;100.00
50226;BME280;36113;50.742;6.432;2023-02-02T13:20:24;146851.78;;;7.58;100.00
50226;BME280;36113;50.742;6.432;2023-02-02T13:22:56;146863.06;;;7.62;100.00
50226;BME280;36113;50.742;6.432;2023-02-02T13:25:27;146814.31;;;7.42;100.00
50226;BME280;36113;50.742;6.432;2023-02-02T13:27:57;146789.31;;;7.32;100.00
50226;BME280;36113;50.742;6.432;2023-02-02T13:30:31;146843.06;;;7.54;100.00
50226;BME280;36113;50.742;6.432;2023-02-02T13:33:01;146833.06;;;7.50;100.00
50226;BME280;36113;50.742;6.432;2023-02-02T13:35:34;146830.56;;;7.49;100.00
50226;BME280;36113;50.742;6.432;2023-02-02T13:38:16;146819.34;;;7.44;100.00
50226;BME280;36113;50.742;6.432;2023-02-02T13:40:43;146874.31;;;7.67;100.00
50226;BME280;36113;50.742;6.432;2023-02-02T13:43:29;146868.03;;;7.64;100.00
50226;BME280;36113;50.742;6.432;2023-02-02T14:01:58;146933.06;;;7.91;100.00
50226;BME280;36113;50.742;6.432;2023-02-02T14:04:27;146994.28;;;8.16;100.00
50226;BME280;36113;50.742;6.432;2023-02-02T14:09:20;146980.56;;;8.11;100.00
50226;BME280;36113;50.742;6.432;2023-02-02T14:11:56;146898.03;;;7.77;100.00
50226;BME280;36113;50.742;6.432;2023-02-02T14:14:22;146964.28;;;8.04;100.00
50226;BME280;36113;50.742;6.432;2023-02-02T14:22:04;146943.03;;;7.95;100.00
50226;BME280;36113;50.742;6.432;2023-02-02T14:24:50;146930.53;;;7.90;100.00
50226;BME280;36113;50.742;6.432;2023-02-02T14:48:01;146871.81;;;7.66;100.00
50226;BME280;36113;50.742;6.432;2023-02-02T14:53:20;146864.28;;;7.63;100.00
50226;BME280;36113;50.742;6.432;2023-02-02T14:55:57;146864.28;;;7.63;100.00
50226;BME280;36113;50.742;6.432;2023-02-02T14:58:41;146886.81;;;7.72;100.00
50226;BME280;36113;50.742;6.432;2023-02-02T15:03:56;146866.81;;;7.64;100.00
50226;BME280;36113;50.742;6.432;2023-02-02T15:06:42;146854.31;;;7.59;100.00
50226;BME280;36113;50.742;6.432;2023-02-02T15:14:37;146823.03;;;7.46;100.00
50226;BME280;36113;50.742;6.432;2023-02-02T15:17:27;146861.81;;;7.62;100.00
50226;BME280;36113;50.742;6.432;2023-02-02T15:23:02;146846.81;;;7.56;100.00
50226;BME280;36113;50.742;6.432;2023-02-02T15:25:49;146864.28;;;7.63;100.00
50226;BME280;36113;50.742;6.432;2023-02-02T15:33:37;146834.31;;;7.50;100.00
50226;BME280;36113;50.742;6.432;2023-02-02T15:36:09;146828.09;;;7.48;100.00